Aviation Digital Data Service (ADDS)

Output produced by METARs form (0516 UTC 30 June 2015)
found at http://aviationweather.gov/adds/metars/
 
KINT 292340Z 3000/3024 16005KT P6SM FEW060 SCT100 
     FM301500 22012KT P6SM SCT250